Time;durP1;ratioP1;P1;durP2;ratioP2;P2;SDS_P1;SDS_P2;PMS_P1;PMS_P2;Temp;Humidity;BMP_temperature;BMP_pressure;BME280_temperature;BME280_humidity;BME280_pressure;Samples;Min_cycle;Max_cycle;Signal;HPM_P1;HPM_P2
2022/03/20 00:00:12;;;;;;;14.52;3.33;;;6.20;99.90;;;;;;5011598;28;20041;-58
2022/03/20 00:02:42;;;;;;;18.10;3.22;;;6.20;99.90;;;;;;5005878;28;20050;-59
2022/03/20 00:05:10;;;;;;;14.85;3.55;;;6.20;99.90;;;;;;5027641;28;20049;-59
2022/03/20 00:07:38;;;;;;;9.45;2.15;;;6.20;99.90;;;;;;5027873;28;20052;-59
2022/03/20 00:10:07;;;;;;;14.88;2.40;;;6.10;99.90;;;;;;5027145;28;20041;-59
2022/03/20 00:12:36;;;;;;;17.88;3.10;;;6.10;99.90;;;;;;5011484;28;20383;-58
2022/03/20 00:15:05;;;;;;;18.10;2.70;;;6.10;99.90;;;;;;5027016;28;20061;-60
2022/03/20 00:17:33;;;;;;;10.93;2.75;;;6.00;99.90;;;;;;5021287;28;20061;-59
2022/03/20 00:20:02;;;;;;;15.15;2.97;;;6.10;99.90;;;;;;5010288;28;20052;-59
2022/03/20 00:22:31;;;;;;;13.30;2.35;;;6.00;99.90;;;;;;5027259;28;20409;-59
2022/03/20 00:24:58;;;;;;;19.08;3.33;;;6.00;99.90;;;;;;5009996;28;20045;-58
2022/03/20 00:27:26;;;;;;;11.73;2.97;;;6.00;99.90;;;;;;5027498;28;20042;-59
2022/03/20 00:29:54;;;;;;;15.52;3.30;;;6.00;99.90;;;;;;4993660;28;20057;-59
2022/03/20 00:32:22;;;;;;;13.63;3.83;;;6.00;99.90;;;;;;5023822;28;20490;-59
2022/03/20 00:34:50;;;;;;;19.95;4.22;;;5.90;99.90;;;;;;5026765;28;20053;-58
2022/03/20 00:37:18;;;;;;;13.43;2.38;;;5.90;99.90;;;;;;5027492;28;20050;-58
2022/03/20 00:39:45;;;;;;;12.65;2.60;;;5.80;99.90;;;;;;5026594;28;20404;-59
2022/03/20 00:42:13;;;;;;;14.02;2.72;;;5.80;99.90;;;;;;5026898;28;20056;-58
2022/03/20 00:44:41;;;;;;;14.07;3.88;;;5.80;99.90;;;;;;5027437;28;20064;-58
2022/03/20 00:47:09;;;;;;;18.25;2.65;;;5.70;99.90;;;;;;5027464;28;20045;-59
2022/03/20 00:49:36;;;;;;;11.32;2.45;;;5.70;99.90;;;;;;5029056;28;20052;-59
2022/03/20 00:52:06;;;;;;;18.52;3.03;;;5.70;99.90;;;;;;5031186;28;20050;-59
2022/03/20 00:54:33;;;;;;;18.92;3.10;;;5.70;99.90;;;;;;5012397;28;20046;-58
2022/03/20 00:57:01;;;;;;;17.17;3.42;;;5.70;99.90;;;;;;5030470;28;20382;-59
2022/03/20 00:59:29;;;;;;;10.27;2.50;;;5.60;99.90;;;;;;5030873;28;20045;-59
2022/03/20 01:01:56;;;;;;;13.65;3.63;;;5.60;99.90;;;;;;5029142;28;20049;-59
2022/03/20 01:04:25;;;;;;;20.63;3.65;;;5.60;99.90;;;;;;5016513;28;20064;-59
2022/03/20 01:06:58;;;;;;;15.50;2.88;;;5.60;99.90;;;;;;5028081;28;20061;-59
2022/03/20 01:09:29;;;;;;;19.83;4.20;;;5.50;99.90;;;;;;5028752;28;20049;-59
2022/03/20 01:11:58;;;;;;;13.75;2.90;;;5.50;99.90;;;;;;5030565;28;20061;-59
2022/03/20 01:14:26;;;;;;;18.65;3.40;;;5.50;99.90;;;;;;5030451;28;20061;-59
2022/03/20 01:16:55;;;;;;;16.92;3.88;;;5.50;99.90;;;;;;5015150;28;20068;-58
2022/03/20 01:19:23;;;;;;;20.67;3.47;;;5.40;99.90;;;;;;5015350;28;20052;-59
2022/03/20 01:21:52;;;;;;;15.75;2.92;;;5.40;99.90;;;;;;5030260;28;20060;-59
2022/03/20 01:24:22;;;;;;;11.43;3.57;;;5.30;99.90;;;;;;5007682;28;20057;-59
2022/03/20 01:26:50;;;;;;;18.15;4.05;;;5.30;99.90;;;;;;5030484;28;20053;-59
2022/03/20 01:29:18;;;;;;;17.80;3.65;;;5.30;99.90;;;;;;5018434;28;20049;-61
2022/03/20 01:31:45;;;;;;;16.83;3.85;;;5.30;99.90;;;;;;5029967;28;20056;-59
2022/03/20 01:34:13;;;;;;;24.13;3.97;;;5.20;99.90;;;;;;5029276;28;20045;-57
2022/03/20 01:36:42;;;;;;;21.23;4.47;;;5.20;99.90;;;;;;5030025;28;20049;-59
2022/03/20 01:39:09;;;;;;;15.82;3.20;;;5.20;99.90;;;;;;5029928;28;20040;-59
2022/03/20 01:41:38;;;;;;;17.67;3.95;;;5.20;99.90;;;;;;5029914;28;20382;-58
2022/03/20 01:44:06;;;;;;;15.45;3.25;;;5.20;99.90;;;;;;5026054;28;20045;-58
2022/03/20 01:46:34;;;;;;;15.35;3.40;;;5.20;99.90;;;;;;5012337;28;20428;-60
2022/03/20 01:49:02;;;;;;;22.45;4.97;;;5.10;99.90;;;;;;5007971;28;20049;-59
2022/03/20 01:54:15;;;;;;;14.48;3.60;;;5.10;99.90;;;;;;5025562;28;20057;-59
2022/03/20 01:56:46;;;;;;;12.40;3.95;;;5.10;99.90;;;;;;5011959;28;20053;-59
2022/03/20 01:59:15;;;;;;;26.17;4.97;;;5.00;99.90;;;;;;5028989;28;20497;-58
2022/03/20 02:01:43;;;;;;;16.40;3.87;;;5.00;99.90;;;;;;5029563;28;20053;-59
2022/03/20 02:04:15;;;;;;;19.63;4.70;;;5.00;99.90;;;;;;5029247;28;20049;-58
2022/03/20 02:06:43;;;;;;;20.42;4.47;;;5.00;99.90;;;;;;5030016;28;20401;-59
2022/03/20 02:09:12;;;;;;;21.48;4.15;;;4.90;99.90;;;;;;5029564;28;20052;-59
2022/03/20 02:11:42;;;;;;;7.90;3.22;;;4.90;99.90;;;;;;5014629;28;20058;-59
2022/03/20 02:14:10;;;;;;;20.25;3.83;;;5.00;99.90;;;;;;5029149;28;20038;-58
2022/03/20 02:16:38;;;;;;;18.30;4.13;;;5.00;99.90;;;;;;5028950;28;20405;-59
2022/03/20 02:19:08;;;;;;;12.73;3.70;;;5.00;99.90;;;;;;5019507;28;20050;-59
2022/03/20 02:21:43;;;;;;;27.40;4.35;;;5.00;99.90;;;;;;5003619;28;20504;-59
2022/03/20 02:24:28;;;;;;;25.35;5.50;;;5.00;99.90;;;;;;5029610;28;20045;-59
2022/03/20 02:27:17;;;;;;;15.68;4.80;;;4.90;99.90;;;;;;5028794;28;20056;-58
2022/03/20 02:29:48;;;;;;;16.00;4.22;;;5.00;99.90;;;;;;5028595;28;20393;-59
2022/03/20 02:32:20;;;;;;;23.98;4.95;;;4.90;99.90;;;;;;5023363;28;20049;-59
2022/03/20 02:34:48;;;;;;;29.13;5.50;;;4.90;99.90;;;;;;5031716;28;20045;-59
2022/03/20 02:37:21;;;;;;;16.92;4.78;;;4.90;99.90;;;;;;5032492;28;20052;-60
2022/03/20 02:39:53;;;;;;;20.58;5.55;;;4.80;99.90;;;;;;5015605;28;20393;-60
2022/03/20 02:42:23;;;;;;;19.48;4.82;;;4.80;99.90;;;;;;5032019;28;20066;-60
2022/03/20 02:45:05;;;;;;;19.67;4.78;;;4.80;99.90;;;;;;5026970;28;20046;-59
2022/03/20 02:47:35;;;;;;;14.27;4.43;;;4.80;99.90;;;;;;5013202;28;20052;-59
2022/03/20 02:50:06;;;;;;;20.08;5.22;;;4.70;99.90;;;;;;4995286;28;20054;-59
2022/03/20 02:52:43;;;;;;;14.95;3.83;;;4.70;99.90;;;;;;5030306;28;20049;-58
2022/03/20 02:55:15;;;;;;;15.30;4.40;;;4.70;99.90;;;;;;5032308;28;20041;-58
2022/03/20 02:57:42;;;;;;;16.70;5.20;;;4.70;99.90;;;;;;5013292;28;20061;-58
2022/03/20 03:00:11;;;;;;;20.80;6.00;;;4.70;99.90;;;;;;5031911;28;20046;-59
2022/03/20 03:02:44;;;;;;;21.98;4.32;;;4.60;99.90;;;;;;5032040;28;20056;-58
2022/03/20 03:05:14;;;;;;;25.67;5.22;;;4.60;99.90;;;;;;5031308;28;20034;-59
2022/03/20 03:13:18;;;;;;;16.17;4.65;;;4.50;99.90;;;;;;5019215;28;20038;-59
2022/03/20 03:15:46;;;;;;;19.45;4.97;;;4.50;99.90;;;;;;5031894;28;20058;-59
2022/03/20 03:18:14;;;;;;;17.35;6.13;;;4.50;99.90;;;;;;5031476;28;20064;-59
2022/03/20 03:20:41;;;;;;;16.58;5.68;;;4.40;99.90;;;;;;5031611;28;20436;-59
2022/03/20 03:23:11;;;;;;;19.23;5.05;;;4.40;99.90;;;;;;5031808;28;20045;-59
2022/03/20 03:25:41;;;;;;;25.08;5.78;;;4.40;99.90;;;;;;5031638;28;20045;-59
2022/03/20 03:28:10;;;;;;;29.65;5.55;;;4.30;99.90;;;;;;5031155;28;20049;-59
2022/03/20 03:30:40;;;;;;;19.90;4.75;;;4.40;99.90;;;;;;5031455;28;20046;-59
2022/03/20 03:33:08;;;;;;;23.23;5.25;;;4.30;99.90;;;;;;5015744;28;20041;-59
2022/03/20 03:35:44;;;;;;;21.33;4.65;;;4.40;99.90;;;;;;5031463;28;20067;-58
2022/03/20 03:38:18;;;;;;;25.88;5.43;;;4.30;99.90;;;;;;5023978;28;20056;-58
2022/03/20 03:40:47;;;;;;;22.33;5.43;;;4.30;99.90;;;;;;5031501;28;20060;-59
2022/03/20 03:43:17;;;;;;;17.20;4.90;;;4.40;99.90;;;;;;5030242;28;20041;-59
2022/03/20 03:45:46;;;;;;;22.70;5.00;;;4.40;99.90;;;;;;5031342;28;20485;-58
2022/03/20 03:48:16;;;;;;;18.43;5.53;;;4.30;99.90;;;;;;5030956;28;20045;-58
2022/03/20 03:50:46;;;;;;;26.85;4.78;;;4.30;99.90;;;;;;5030919;28;20040;-58
2022/03/20 03:53:14;;;;;;;22.67;5.95;;;4.30;99.90;;;;;;5028887;28;20063;-58
2022/03/20 03:55:43;;;;;;;13.60;4.43;;;4.30;99.90;;;;;;5031177;28;20048;-58
2022/03/20 03:58:13;;;;;;;19.52;4.78;;;4.30;99.90;;;;;;5031106;28;20053;-59
2022/03/20 04:00:43;;;;;;;35.97;6.40;;;4.30;99.90;;;;;;5031307;28;20041;-59
2022/03/20 04:03:12;;;;;;;22.02;5.80;;;4.30;99.90;;;;;;5031019;28;20401;-59
2022/03/20 04:05:40;;;;;;;21.98;5.15;;;4.30;99.90;;;;;;5030893;28;20037;-59
2022/03/20 04:08:09;;;;;;;16.30;5.22;;;4.20;99.90;;;;;;5030529;28;20401;-58
2022/03/20 04:10:37;;;;;;;19.80;5.45;;;4.20;99.90;;;;;;5031040;28;20037;-59
2022/03/20 04:13:05;;;;;;;20.25;5.95;;;4.20;99.90;;;;;;5030796;28;20489;-59
2022/03/20 04:15:32;;;;;;;21.60;5.78;;;4.10;99.90;;;;;;5031304;28;20412;-59
2022/03/20 04:18:01;;;;;;;15.93;5.22;;;4.20;99.90;;;;;;5030764;28;20382;-59
2022/03/20 04:20:29;;;;;;;17.05;5.20;;;4.20;99.90;;;;;;5024923;28;20046;-59
2022/03/20 04:25:43;;;;;;;22.17;6.40;;;4.10;99.90;;;;;;5034884;28;20053;-59
2022/03/20 04:28:11;;;;;;;22.80;6.65;;;4.10;99.90;;;;;;5034556;28;20048;-59
2022/03/20 04:30:38;;;;;;;23.13;6.18;;;4.10;99.90;;;;;;5028937;28;20060;-58
2022/03/20 04:33:06;;;;;;;25.23;6.28;;;4.10;99.90;;;;;;5034849;28;20045;-59
2022/03/20 04:35:35;;;;;;;20.05;6.68;;;4.10;99.90;;;;;;5034581;28;20049;-59
2022/03/20 04:38:04;;;;;;;18.88;5.47;;;4.00;99.90;;;;;;5034774;28;20041;-59
2022/03/20 04:40:33;;;;;;;22.02;6.38;;;4.00;99.90;;;;;;5034569;28;20061;-59
2022/03/20 04:43:01;;;;;;;20.85;5.70;;;4.00;99.90;;;;;;5029771;28;20049;-59
2022/03/20 04:45:29;;;;;;;24.67;4.70;;;4.00;99.90;;;;;;5033140;28;20515;-58
2022/03/20 04:59:03;;;;;;;15.15;5.20;;;4.00;99.90;;;;;;5016918;28;20405;-58
2022/03/20 05:01:31;;;;;;;15.80;4.68;;;3.90;99.90;;;;;;5034552;28;20045;-58
2022/03/20 05:04:00;;;;;;;17.88;5.85;;;4.00;99.90;;;;;;5033992;28;20056;-58
2022/03/20 05:06:27;;;;;;;20.60;5.95;;;4.00;99.90;;;;;;5034100;28;20389;-59
2022/03/20 05:13:19;;;;;;;12.80;5.28;;;4.00;99.90;;;;;;5034518;28;20481;-58
2022/03/20 05:14:29;;;;;;;18.08;4.93;;;4.00;99.90;;;;;;5033404;28;20044;-59
2022/03/20 05:17:09;;;;;;;21.25;5.55;;;4.00;99.90;;;;;;5016114;28;20049;-58
2022/03/20 05:19:40;;;;;;;17.50;4.60;;;3.90;99.90;;;;;;5016173;28;20833;-58
2022/03/20 05:22:10;;;;;;;16.67;4.60;;;3.90;99.90;;;;;;5033490;28;20052;-59
2022/03/20 05:24:39;;;;;;;17.73;5.28;;;4.00;99.90;;;;;;5033901;28;20504;-58
2022/03/20 05:27:07;;;;;;;24.52;6.85;;;3.90;99.90;;;;;;5033858;28;20061;-59
2022/03/20 05:29:35;;;;;;;20.33;6.28;;;3.90;99.90;;;;;;5033544;28;20054;-59
2022/03/20 05:32:04;;;;;;;19.13;5.88;;;3.90;99.90;;;;;;5019054;28;20054;-59
2022/03/20 05:34:34;;;;;;;17.58;4.43;;;3.80;99.90;;;;;;4995923;28;20460;-59
2022/03/20 05:37:03;;;;;;;18.77;4.93;;;3.80;99.90;;;;;;5013279;28;20057;-59
2022/03/20 05:39:33;;;;;;;13.82;5.05;;;3.80;99.90;;;;;;5020899;28;20037;-58
2022/03/20 05:42:00;;;;;;;20.48;5.75;;;3.90;99.90;;;;;;5033501;28;20481;-58
2022/03/20 05:44:28;;;;;;;13.18;4.55;;;3.80;99.90;;;;;;5016108;28;20038;-59
2022/03/20 05:47:00;;;;;;;17.63;5.63;;;3.80;99.90;;;;;;5030170;28;20049;-59
2022/03/20 05:49:28;;;;;;;20.27;5.10;;;3.80;99.90;;;;;;5012961;28;20061;-58
2022/03/20 05:51:57;;;;;;;21.48;4.55;;;3.80;99.90;;;;;;5030199;28;20049;-59
2022/03/20 05:54:25;;;;;;;12.15;4.75;;;3.80;99.90;;;;;;5027484;28;20037;-59
2022/03/20 05:59:39;;;;;;;18.77;5.18;;;3.80;99.90;;;;;;5029953;28;20046;-59
2022/03/20 06:02:09;;;;;;;13.63;5.15;;;3.70;99.90;;;;;;5022231;28;22005;-58
2022/03/20 06:04:38;;;;;;;15.10;5.22;;;3.80;99.90;;;;;;5022615;28;20413;-59
2022/03/20 06:07:08;;;;;;;23.03;4.87;;;3.70;99.90;;;;;;5026228;28;20049;-59
2022/03/20 06:09:37;;;;;;;21.17;6.78;;;3.70;99.90;;;;;;5026876;28;20393;-59
2022/03/20 06:12:07;;;;;;;18.05;5.20;;;3.70;99.90;;;;;;5027953;28;20057;-59
2022/03/20 06:14:35;;;;;;;;;;;3.70;99.90;;;;;;5029297;28;20053;-58
2022/03/20 06:17:05;;;;;;;27.90;6.05;;;3.70;99.90;;;;;;5023112;28;20291;-59
2022/03/20 06:19:35;;;;;;;19.13;5.60;;;3.70;99.90;;;;;;5026254;28;20484;-58
2022/03/20 06:22:04;;;;;;;21.83;6.40;;;3.70;99.90;;;;;;5029276;28;20054;-59
2022/03/20 06:24:32;;;;;;;16.98;5.78;;;3.70;99.90;;;;;;5009501;28;20547;-59
2022/03/20 06:27:00;;;;;;;15.50;4.50;;;3.70;99.90;;;;;;5027078;28;20048;-58
2022/03/20 06:29:28;;;;;;;17.73;5.38;;;3.70;99.90;;;;;;5026903;28;20041;-59
2022/03/20 06:31:57;;;;;;;15.93;4.32;;;3.70;99.90;;;;;;5013785;28;20050;-59
2022/03/20 06:34:26;;;;;;;21.33;5.35;;;3.70;99.90;;;;;;5018169;28;20053;-59
2022/03/20 06:36:57;;;;;;;21.73;5.15;;;3.70;99.90;;;;;;5018703;28;20068;-59
2022/03/20 06:39:25;;;;;;;13.18;5.72;;;3.70;99.90;;;;;;5025683;28;20057;-59
2022/03/20 06:41:53;;;;;;;14.10;5.28;;;3.70;99.90;;;;;;5026989;28;20038;-59
2022/03/20 06:44:21;;;;;;;13.73;4.97;;;3.70;99.90;;;;;;5028956;28;20060;-58
2022/03/20 06:46:49;;;;;;;17.52;5.60;;;3.70;99.90;;;;;;5028360;28;20049;-59
2022/03/20 06:49:18;;;;;;;15.15;5.75;;;3.70;99.90;;;;;;5009599;28;20061;-59
2022/03/20 06:51:46;;;;;;;19.00;4.97;;;3.70;99.90;;;;;;5026896;28;20052;-58
2022/03/20 06:54:14;;;;;;;13.65;5.28;;;3.70;99.90;;;;;;5025618;28;20049;-59
2022/03/20 06:56:41;;;;;;;12.93;4.53;;;3.80;99.90;;;;;;5026436;28;20041;-59
2022/03/20 06:59:14;;;;;;;18.73;4.13;;;3.70;99.90;;;;;;5028299;28;20045;-58
2022/03/20 07:01:41;;;;;;;15.48;4.50;;;3.70;99.90;;;;;;5026146;28;20501;-59
2022/03/20 07:04:10;;;;;;;21.35;5.28;;;3.80;99.90;;;;;;5012611;28;20541;-59
2022/03/20 07:06:38;;;;;;;26.35;5.60;;;3.80;99.90;;;;;;5015503;28;20053;-59
2022/03/20 07:09:06;;;;;;;23.38;5.28;;;3.80;99.90;;;;;;5026457;28;20049;-58
2022/03/20 07:11:34;;;;;;;19.70;5.68;;;3.80;99.90;;;;;;5011402;28;20049;-59
2022/03/20 07:14:02;;;;;;;15.32;5.00;;;3.90;99.90;;;;;;5027907;28;20049;-59
2022/03/20 07:16:33;;;;;;;17.85;5.82;;;3.90;99.90;;;;;;5028372;28;20052;-60
2022/03/20 07:19:02;;;;;;;20.55;5.43;;;3.90;99.90;;;;;;5025399;28;20397;-58
2022/03/20 07:21:32;;;;;;;12.30;4.63;;;4.00;99.90;;;;;;5010133;28;20053;-59
2022/03/20 07:24:02;;;;;;;16.58;4.30;;;4.10;99.90;;;;;;5021495;28;20045;-59
2022/03/20 07:29:31;;;;;;;14.32;4.53;;;4.20;99.90;;;;;;5024408;28;20041;-59
2022/03/20 07:32:02;;;;;;;12.07;4.13;;;4.20;99.90;;;;;;5016311;28;20041;-59
2022/03/20 07:34:31;;;;;;;15.07;4.22;;;4.40;99.90;;;;;;4995720;28;20061;-59
2022/03/20 07:36:59;;;;;;;10.60;4.50;;;4.40;99.90;;;;;;5024924;28;20046;-59
2022/03/20 07:39:28;;;;;;;13.23;4.75;;;4.50;99.90;;;;;;5013545;28;20060;-59
2022/03/20 07:41:57;;;;;;;13.32;4.60;;;4.60;99.90;;;;;;5024987;28;20038;-60
2022/03/20 07:44:26;;;;;;;15.75;4.53;;;4.60;99.90;;;;;;5024553;28;20512;-59
2022/03/20 07:46:54;;;;;;;15.73;4.38;;;4.80;99.90;;;;;;5026272;28;20041;-64
2022/03/20 07:49:22;;;;;;;22.23;4.32;;;4.80;99.90;;;;;;5021684;28;20421;-59
2022/03/20 07:51:50;;;;;;;13.55;4.78;;;4.90;99.90;;;;;;5007411;28;20045;-59
2022/03/20 07:54:18;;;;;;;15.90;3.65;;;5.00;99.90;;;;;;5024298;28;20037;-59
2022/03/20 07:56:45;;;;;;;14.43;4.75;;;5.00;99.90;;;;;;5006591;28;20046;-59
2022/03/20 07:59:16;;;;;;;10.90;4.32;;;5.10;99.90;;;;;;5027321;28;20041;-59
2022/03/20 08:01:44;;;;;;;13.52;4.50;;;5.20;99.90;;;;;;5025239;28;20523;-59
2022/03/20 08:04:12;;;;;;;11.10;4.78;;;5.30;99.90;;;;;;5020611;28;20351;-59
2022/03/20 08:06:39;;;;;;;19.38;5.40;;;5.30;99.90;;;;;;5025182;28;20048;-59
2022/03/20 08:09:07;;;;;;;17.13;4.43;;;5.40;99.90;;;;;;5027595;28;20053;-58
2022/03/20 08:11:35;;;;;;;12.32;4.70;;;5.40;99.90;;;;;;5028086;28;20045;-59
2022/03/20 08:14:07;;;;;;;15.68;5.25;;;5.50;99.90;;;;;;5020275;28;20057;-60
2022/03/20 08:16:38;;;;;;;8.15;3.88;;;5.50;99.90;;;;;;5022234;28;20405;-59
2022/03/20 08:19:08;;;;;;;12.70;4.43;;;5.60;99.90;;;;;;5021871;28;20041;-59
2022/03/20 08:21:38;;;;;;;10.98;5.05;;;5.70;99.90;;;;;;4988884;28;20514;-58
2022/03/20 08:24:07;;;;;;;;;;;5.70;99.90;;;;;;5019366;28;20045;-59
2022/03/20 08:26:38;;;;;;;11.73;5.20;;;5.80;99.90;;;;;;5025269;28;19928;-58
2022/03/20 08:29:08;;;;;;;6.93;3.67;;;5.90;99.90;;;;;;5026432;28;20058;-59
2022/03/20 08:31:36;;;;;;;;;;;5.90;99.90;;;;;;5027394;28;20068;-58
2022/03/20 08:34:05;;;;;;;16.63;4.70;;;6.00;99.90;;;;;;5022731;28;19921;-58
2022/03/20 08:36:34;;;;;;;15.07;4.68;;;6.00;99.90;;;;;;5020045;28;20432;-59
2022/03/20 08:39:02;;;;;;;11.80;3.90;;;6.10;99.90;;;;;;5026277;28;20045;-58
2022/03/20 08:41:31;;;;;;;9.80;4.70;;;6.20;99.90;;;;;;5024470;28;20057;-59
2022/03/20 08:44:00;;;;;;;13.83;4.60;;;6.20;99.90;;;;;;5009923;28;20069;-59
2022/03/20 08:46:28;;;;;;;17.42;5.03;;;6.30;99.90;;;;;;5027561;28;20294;-61
2022/03/20 08:48:56;;;;;;;16.70;4.30;;;6.30;99.90;;;;;;5024620;28;20045;-59
2022/03/20 08:51:24;;;;;;;11.55;4.45;;;6.50;99.90;;;;;;5020475;28;20042;-59
2022/03/20 08:53:51;;;;;;;15.57;4.28;;;6.50;99.90;;;;;;5027288;28;20056;-59
2022/03/20 08:56:20;;;;;;;10.90;4.40;;;6.60;99.90;;;;;;5027101;28;20038;-59
2022/03/20 08:58:50;;;;;;;13.77;5.25;;;6.70;99.90;;;;;;5025460;28;20065;-58
2022/03/20 09:01:22;;;;;;;12.30;3.95;;;6.70;99.90;;;;;;5023567;28;20037;-58
2022/03/20 09:03:50;;;;;;;15.23;4.63;;;6.80;99.90;;;;;;5025647;28;20045;-59
2022/03/20 09:06:21;;;;;;;9.57;3.90;;;6.90;99.90;;;;;;5014471;28;20072;-58
2022/03/20 09:08:50;;;;;;;9.07;3.92;;;6.90;99.90;;;;;;5010240;28;20060;-58
2022/03/20 09:11:18;;;;;;;7.95;4.15;;;7.00;99.90;;;;;;5029697;28;20046;-58
2022/03/20 09:13:46;;;;;;;13.80;5.07;;;7.10;99.90;;;;;;5022715;28;20057;-58
2022/03/20 09:19:04;;;;;;;14.98;4.80;;;7.20;99.90;;;;;;5027627;28;20046;-58
2022/03/20 09:21:35;;;;;;;11.35;4.55;;;7.30;99.90;;;;;;5029913;28;20482;-58
2022/03/20 09:24:04;;;;;;;12.80;4.00;;;7.40;99.90;;;;;;5009171;28;20489;-59
2022/03/20 09:26:32;;;;;;;12.55;4.68;;;7.50;99.90;;;;;;5030120;28;20052;-58
2022/03/20 09:29:01;;;;;;;17.33;5.18;;;7.50;99.90;;;;;;5030364;28;20045;-58
2022/03/20 09:31:31;;;;;;;10.75;4.20;;;7.60;99.90;;;;;;5030520;28;20049;-58
2022/03/20 09:34:01;;;;;;;13.50;4.50;;;7.60;99.90;;;;;;5024066;28;20506;-58
2022/03/20 09:36:29;;;;;;;12.53;4.60;;;7.70;99.90;;;;;;5030072;28;20047;-57
2022/03/20 09:38:57;;;;;;;8.73;3.80;;;7.70;99.90;;;;;;5029981;28;20080;-58
2022/03/20 09:41:30;;;;;;;17.35;5.35;;;7.70;99.90;;;;;;5013358;28;20042;-58
2022/03/20 09:44:04;;;;;;;12.95;5.22;;;7.80;99.90;;;;;;4980421;28;20129;-58
2022/03/20 09:46:33;;;;;;;10.95;4.65;;;7.80;99.90;;;;;;5027962;28;20054;-59
2022/03/20 09:49:05;;;;;;;16.85;5.28;;;7.90;99.90;;;;;;5029177;28;20049;-59
2022/03/20 09:51:34;;;;;;;11.77;5.00;;;8.00;99.90;;;;;;5029744;28;20049;-59
2022/03/20 09:54:02;;;;;;;13.40;4.63;;;8.00;99.90;;;;;;5030204;28;20457;-58
2022/03/20 09:56:30;;;;;;;23.50;6.00;;;8.10;99.90;;;;;;5024008;28;20076;-59
2022/03/20 09:58:58;;;;;;;13.65;5.22;;;8.20;99.90;;;;;;5026191;28;20045;-58
2022/03/20 10:01:26;;;;;;;13.00;5.10;;;8.20;99.90;;;;;;5021268;28;20033;-58
2022/03/20 10:04:23;;;;;;;16.25;5.60;;;8.30;99.90;;;;;;5025118;28;20041;-57
2022/03/20 10:06:51;;;;;;;14.32;6.32;;;8.40;99.90;;;;;;5016533;28;20054;-58
2022/03/20 10:09:19;;;;;;;17.65;5.78;;;8.40;99.90;;;;;;5011495;28;20052;-58
2022/03/20 10:11:48;;;;;;;14.07;5.45;;;8.40;99.90;;;;;;5010087;28;20057;-58
2022/03/20 10:14:16;;;;;;;;;;;8.40;99.90;;;;;;5026277;28;20042;-58
2022/03/20 10:16:55;;;;;;;11.57;5.88;;;8.40;99.90;;;;;;4994962;28;19921;-57
2022/03/20 10:19:23;;;;;;;10.90;5.05;;;8.40;99.90;;;;;;5019687;28;20041;-58
2022/03/20 10:22:03;;;;;;;16.88;6.10;;;8.40;99.90;;;;;;5020452;28;20052;-58
2022/03/20 10:24:34;;;;;;;12.70;5.68;;;8.40;99.90;;;;;;5028686;28;20050;-58
2022/03/20 10:27:01;;;;;;;12.93;5.30;;;8.40;99.90;;;;;;5028882;28;20054;-58
2022/03/20 10:29:31;;;;;;;13.32;5.72;;;8.40;99.90;;;;;;5028929;28;20060;-58
2022/03/20 10:32:02;;;;;;;11.82;5.00;;;8.50;99.90;;;;;;5029496;28;20039;-58
2022/03/20 10:34:30;;;;;;;13.15;5.43;;;8.70;99.90;;;;;;5025431;28;20042;-58
2022/03/20 10:36:57;;;;;;;14.35;6.38;;;8.80;99.90;;;;;;5026388;28;20045;-58
2022/03/20 10:39:27;;;;;;;16.15;5.90;;;8.80;99.90;;;;;;5021779;28;20045;-58
2022/03/20 10:41:58;;;;;;;12.73;6.50;;;8.80;99.90;;;;;;5009991;28;20053;-58
2022/03/20 10:44:31;;;;;;;14.18;5.93;;;8.80;99.90;;;;;;5009598;28;20408;-58
2022/03/20 10:47:10;;;;;;;14.85;5.90;;;8.80;99.90;;;;;;5026776;28;20409;-56
2022/03/20 10:49:41;;;;;;;16.40;5.68;;;8.70;99.90;;;;;;5022903;28;20064;-57
2022/03/20 10:52:11;;;;;;;15.52;6.38;;;8.80;99.90;;;;;;5028527;28;20297;-57
2022/03/20 10:54:44;;;;;;;13.20;5.43;;;8.90;99.90;;;;;;5028427;28;20046;-57
2022/03/20 10:57:13;;;;;;;12.95;5.75;;;9.10;99.90;;;;;;5028536;28;20033;-58
2022/03/20 10:59:42;;;;;;;16.10;6.47;;;9.30;99.90;;;;;;5027039;28;20052;-58
2022/03/20 11:02:24;;;;;;;19.38;6.00;;;9.40;99.90;;;;;;5024907;28;20056;-58
2022/03/20 11:04:53;;;;;;;10.00;4.88;;;9.50;99.90;;;;;;5023912;28;20058;-57
2022/03/20 11:07:23;;;;;;;20.00;6.88;;;9.60;99.90;;;;;;5027644;28;20045;-56
2022/03/20 11:09:54;;;;;;;12.25;5.70;;;9.50;99.90;;;;;;5024460;28;20393;-57
2022/03/20 11:12:29;;;;;;;18.42;7.50;;;9.40;99.90;;;;;;5013107;28;20056;-58
2022/03/20 11:15:00;;;;;;;15.00;7.13;;;9.40;99.90;;;;;;5027902;28;20156;-58
2022/03/20 11:17:50;;;;;;;16.17;6.25;;;9.30;99.90;;;;;;5027389;28;20057;-58
2022/03/20 11:20:19;;;;;;;14.48;5.68;;;9.20;99.90;;;;;;5009248;28;20052;-58
2022/03/20 11:22:49;;;;;;;;;;;9.10;99.90;;;;;;5020182;28;20053;-58
2022/03/20 11:25:20;;;;;;;15.10;5.90;;;9.10;99.90;;;;;;5024738;28;19928;-58
2022/03/20 11:27:55;;;;;;;13.07;5.75;;;9.10;99.90;;;;;;5016023;28;20041;-58
2022/03/20 11:30:30;;;;;;;16.05;6.78;;;9.00;99.90;;;;;;5025495;28;20060;-58
2022/03/20 11:33:02;;;;;;;16.60;6.82;;;8.90;99.90;;;;;;5009694;28;20060;-57
2022/03/20 11:35:32;;;;;;;15.40;6.47;;;8.90;99.90;;;;;;5012259;28;20050;-58
2022/03/20 11:38:24;;;;;;;10.32;5.25;;;8.90;99.90;;;;;;5026979;28;20037;-58
2022/03/20 11:41:20;;;;;;;15.55;5.93;;;8.90;99.90;;;;;;5026619;28;20218;-57
2022/03/20 11:44:11;;;;;;;23.83;6.68;;;8.90;99.90;;;;;;5027283;28;20413;-58
2022/03/20 11:46:43;;;;;;;12.60;6.55;;;8.90;99.90;;;;;;4985527;28;20042;-58
2022/03/20 11:49:19;;;;;;;20.25;6.25;;;8.90;99.90;;;;;;5019228;28;20536;-57
2022/03/20 11:51:50;;;;;;;15.30;6.35;;;9.00;99.90;;;;;;5026796;28;20256;-57
2022/03/20 11:54:19;;;;;;;16.40;7.18;;;9.10;99.90;;;;;;5023759;28;20054;-57
2022/03/20 11:56:48;;;;;;;14.87;6.53;;;9.10;99.90;;;;;;5021589;28;20420;-56
2022/03/20 11:59:54;;;;;;;14.48;6.60;;;9.20;99.90;;;;;;5015076;28;20045;-58
2022/03/20 12:02:35;;;;;;;13.48;6.70;;;9.30;99.90;;;;;;5013366;28;20049;-57
2022/03/20 12:05:25;;;;;;;14.27;6.90;;;9.70;99.90;;;;;;5024885;28;20417;-57
2022/03/20 12:08:16;;;;;;;12.07;6.90;;;10.10;99.90;;;;;;5027363;28;20045;-57
2022/03/20 12:11:02;;;;;;;13.20;8.00;;;10.40;97.70;;;;;;5013872;28;20041;-58
2022/03/20 12:13:49;;;;;;;13.65;6.43;;;10.60;97.10;;;;;;5006902;28;20038;-58
2022/03/20 12:16:48;;;;;;;15.80;6.53;;;11.20;94.10;;;;;;5026706;28;20053;-58
2022/03/20 12:19:21;;;;;;;14.77;6.88;;;11.60;90.70;;;;;;5000777;28;20053;-58
2022/03/20 12:21:58;;;;;;;14.35;8.00;;;12.00;85.70;;;;;;5027218;28;20049;-57
2022/03/20 12:24:39;;;;;;;15.25;7.97;;;12.20;82.40;;;;;;5027710;28;20041;-58
2022/03/20 12:27:23;;;;;;;16.77;8.43;;;12.20;82.10;;;;;;5020929;28;20056;-58
2022/03/20 12:30:01;;;;;;;14.82;8.80;;;12.60;81.60;;;;;;5010837;28;20041;-58
2022/03/20 12:32:50;;;;;;;15.27;9.35;;;13.00;79.00;;;;;;5025707;28;20061;-58
2022/03/20 12:35:22;;;;;;;15.82;8.80;;;13.30;75.30;;;;;;5008152;28;20058;-58
2022/03/20 12:37:52;;;;;;;15.40;9.02;;;13.60;71.90;;;;;;5020873;28;20057;-57
2022/03/20 12:40:31;;;;;;;21.33;9.77;;;13.80;68.90;;;;;;5025211;28;20053;-58
2022/03/20 12:43:20;;;;;;;16.48;9.27;;;14.00;68.70;;;;;;5024838;28;20037;-58
2022/03/20 12:45:54;;;;;;;17.95;9.13;;;14.30;67.40;;;;;;5031393;28;20516;-58
2022/03/20 12:48:23;;;;;;;15.07;9.57;;;14.50;64.90;;;;;;5015062;28;20060;-58
2022/03/20 12:51:11;;;;;;;16.40;9.73;;;14.60;63.30;;;;;;5028070;28;20049;-58
2022/03/20 12:53:46;;;;;;;18.75;10.07;;;14.70;63.80;;;;;;5030504;28;20056;-58
2022/03/20 12:58:50;;;;;;;15.13;9.43;;;14.20;62.80;;;;;;5031555;28;20378;-59
2022/03/20 13:01:18;;;;;;;15.18;9.07;;;14.30;63.90;;;;;;5013698;28;20049;-59
2022/03/20 13:03:47;;;;;;;15.52;9.82;;;14.30;61.40;;;;;;5029573;28;20524;-59
2022/03/20 13:06:15;;;;;;;14.43;9.45;;;14.10;61.60;;;;;;5013486;28;20055;-59
2022/03/20 13:08:56;;;;;;;16.08;10.02;;;13.70;62.70;;;;;;4997670;28;20489;-58
2022/03/20 13:11:48;;;;;;;18.10;9.65;;;13.30;62.70;;;;;;5011920;28;20041;-58
2022/03/20 13:14:16;;;;;;;17.67;10.57;;;13.00;63.70;;;;;;5013995;28;20505;-58
2022/03/20 13:17:02;;;;;;;17.98;10.32;;;12.50;64.20;;;;;;5030418;28;20045;-58
2022/03/20 13:19:42;;;;;;;20.15;10.10;;;12.20;65.60;;;;;;5029910;28;20046;-57
2022/03/20 13:22:12;;;;;;;16.83;9.88;;;12.50;67.80;;;;;;5028276;28;20060;-58
2022/03/20 13:24:42;;;;;;;21.67;10.88;;;12.90;66.70;;;;;;5026677;28;20049;-57
2022/03/20 13:27:11;;;;;;;19.27;9.70;;;13.10;65.00;;;;;;5005593;28;20050;-59
2022/03/20 13:29:42;;;;;;;18.23;9.77;;;13.00;64.40;;;;;;5023927;28;20049;-57
2022/03/20 13:32:14;;;;;;;20.48;10.80;;;12.80;63.10;;;;;;5017595;28;20493;-57
2022/03/20 13:34:47;;;;;;;22.30;10.68;;;12.40;64.00;;;;;;5021501;28;20046;-58
2022/03/20 13:37:22;;;;;;;17.40;10.30;;;12.20;65.10;;;;;;5030871;28;20501;-57
2022/03/20 13:39:57;;;;;;;16.02;9.20;;;12.10;64.00;;;;;;5026219;28;20041;-58
2022/03/20 13:42:30;;;;;;;16.60;9.73;;;12.30;65.60;;;;;;5021233;28;20050;-58